sensor_id;sensor_type;location;lat;lon;timestamp;temperature;humidity
72355;SHT30;60314;55.040;73.076;2022-09-14T00:01:41;7.87;77.23
72355;SHT30;60314;55.040;73.076;2022-09-14T00:04:18;7.90;77.04
72355;SHT30;60314;55.040;73.076;2022-09-14T00:06:51;7.92;76.86
72355;SHT30;60314;55.040;73.076;2022-09-14T00:09:22;7.96;76.96
72355;SHT30;60314;55.040;73.076;2022-09-14T00:11:50;7.97;76.73
72355;SHT30;60314;55.040;73.076;2022-09-14T00:14:18;7.97;76.87
72355;SHT30;60314;55.040;73.076;2022-09-14T00:16:48;7.96;77.17
72355;SHT30;60314;55.040;73.076;2022-09-14T00:19:22;7.93;77.29
72355;SHT30;60314;55.040;73.076;2022-09-14T00:21:56;7.89;77.33
72355;SHT30;60314;55.040;73.076;2022-09-14T00:24:24;7.90;77.03
72355;SHT30;60314;55.040;73.076;2022-09-14T00:26:51;7.92;76.97
72355;SHT30;60314;55.040;73.076;2022-09-14T00:29:29;7.92;75.72
72355;SHT30;60314;55.040;73.076;2022-09-14T00:31:55;7.96;74.66
72355;SHT30;60314;55.040;73.076;2022-09-14T00:34:22;7.96;75.16
72355;SHT30;60314;55.040;73.076;2022-09-14T00:36:49;7.92;72.18
72355;SHT30;60314;55.040;73.076;2022-09-14T00:39:19;7.94;71.86
72355;SHT30;60314;55.040;73.076;2022-09-14T00:41:48;7.89;72.72
72355;SHT30;60314;55.040;73.076;2022-09-14T00:46:56;7.83;73.97
72355;SHT30;60314;55.040;73.076;2022-09-14T00:52:05;7.83;74.07
72355;SHT30;60314;55.040;73.076;2022-09-14T00:54:40;7.79;74.57
72355;SHT30;60314;55.040;73.076;2022-09-14T00:57:08;7.83;74.50
72355;SHT30;60314;55.040;73.076;2022-09-14T00:59:36;7.83;74.37
72355;SHT30;60314;55.040;73.076;2022-09-14T01:02:06;7.82;75.09
72355;SHT30;60314;55.040;73.076;2022-09-14T01:04:45;7.82;75.45
72355;SHT30;60314;55.040;73.076;2022-09-14T01:07:44;7.86;75.56
72355;SHT30;60314;55.040;73.076;2022-09-14T01:18:50;8.06;75.89
72355;SHT30;60314;55.040;73.076;2022-09-14T01:21:23;8.06;75.74
72355;SHT30;60314;55.040;73.076;2022-09-14T01:29:40;8.20;76.22
72355;SHT30;60314;55.040;73.076;2022-09-14T01:32:17;8.23;76.42
72355;SHT30;60314;55.040;73.076;2022-09-14T01:35:09;8.30;76.03
72355;SHT30;60314;55.040;73.076;2022-09-14T01:37:46;8.34;76.38
72355;SHT30;60314;55.040;73.076;2022-09-14T01:40:22;8.41;76.38
72355;SHT30;60314;55.040;73.076;2022-09-14T01:43:02;8.50;75.08
72355;SHT30;60314;55.040;73.076;2022-09-14T01:45:30;8.52;75.99
72355;SHT30;60314;55.040;73.076;2022-09-14T01:48:01;8.64;73.79
72355;SHT30;60314;55.040;73.076;2022-09-14T01:50:34;8.71;74.56
72355;SHT30;60314;55.040;73.076;2022-09-14T01:55:58;8.74;75.48
72355;SHT30;60314;55.040;73.076;2022-09-14T01:58:35;8.78;75.75
72355;SHT30;60314;55.040;73.076;2022-09-14T02:01:05;8.83;75.47
72355;SHT30;60314;55.040;73.076;2022-09-14T02:03:39;8.89;75.61
72355;SHT30;60314;55.040;73.076;2022-09-14T02:06:15;8.95;75.94
72355;SHT30;60314;55.040;73.076;2022-09-14T02:08:54;9.01;75.68
72355;SHT30;60314;55.040;73.076;2022-09-14T02:11:20;9.09;75.80
72355;SHT30;60314;55.040;73.076;2022-09-14T02:13:47;9.16;75.53
72355;SHT30;60314;55.040;73.076;2022-09-14T02:16:13;9.23;75.74
72355;SHT30;60314;55.040;73.076;2022-09-14T02:18:40;9.27;75.98
72355;SHT30;60314;55.040;73.076;2022-09-14T02:21:17;9.39;75.77
72355;SHT30;60314;55.040;73.076;2022-09-14T02:23:56;9.47;74.26
72355;SHT30;60314;55.040;73.076;2022-09-14T02:26:25;9.57;74.57
72355;SHT30;60314;55.040;73.076;2022-09-14T02:28:52;9.64;74.60
72355;SHT30;60314;55.040;73.076;2022-09-14T02:31:38;9.71;73.78
72355;SHT30;60314;55.040;73.076;2022-09-14T02:37:12;9.80;72.14
72355;SHT30;60314;55.040;73.076;2022-09-14T02:40:06;9.83;72.08
72355;SHT30;60314;55.040;73.076;2022-09-14T02:42:54;9.90;72.02
72355;SHT30;60314;55.040;73.076;2022-09-14T02:45:44;10.04;71.65
72355;SHT30;60314;55.040;73.076;2022-09-14T02:48:20;10.08;71.25
72355;SHT30;60314;55.040;73.076;2022-09-14T02:54:30;10.28;71.38
72355;SHT30;60314;55.040;73.076;2022-09-14T02:57:02;10.31;70.75
72355;SHT30;60314;55.040;73.076;2022-09-14T02:59:31;10.42;70.96
72355;SHT30;60314;55.040;73.076;2022-09-14T03:02:02;10.56;71.30
72355;SHT30;60314;55.040;73.076;2022-09-14T03:04:34;10.59;70.67
72355;SHT30;60314;55.040;73.076;2022-09-14T03:07:00;10.70;70.91
72355;SHT30;60314;55.040;73.076;2022-09-14T03:09:33;10.86;70.90
72355;SHT30;60314;55.040;73.076;2022-09-14T03:12:05;11.01;70.36
72355;SHT30;60314;55.040;73.076;2022-09-14T03:14:31;11.13;68.81
72355;SHT30;60314;55.040;73.076;2022-09-14T03:16:58;11.18;68.79
72355;SHT30;60314;55.040;73.076;2022-09-14T03:19:24;11.30;68.56
72355;SHT30;60314;55.040;73.076;2022-09-14T03:21:51;11.39;67.65
72355;SHT30;60314;55.040;73.076;2022-09-14T03:24:17;11.52;68.73
72355;SHT30;60314;55.040;73.076;2022-09-14T03:26:44;11.64;68.00
72355;SHT30;60314;55.040;73.076;2022-09-14T03:29:16;11.75;67.79
72355;SHT30;60314;55.040;73.076;2022-09-14T03:31:42;11.85;67.59
72355;SHT30;60314;55.040;73.076;2022-09-14T03:34:09;11.93;67.28
72355;SHT30;60314;55.040;73.076;2022-09-14T03:36:35;12.08;66.96
72355;SHT30;60314;55.040;73.076;2022-09-14T03:39:02;12.06;66.88
72355;SHT30;60314;55.040;73.076;2022-09-14T03:41:28;12.17;66.67
72355;SHT30;60314;55.040;73.076;2022-09-14T03:44:05;12.34;66.40
72355;SHT30;60314;55.040;73.076;2022-09-14T03:46:32;12.40;65.95
72355;SHT30;60314;55.040;73.076;2022-09-14T03:48:58;12.47;65.96
72355;SHT30;60314;55.040;73.076;2022-09-14T03:51:25;12.58;66.02
72355;SHT30;60314;55.040;73.076;2022-09-14T03:53:51;12.74;65.60
72355;SHT30;60314;55.040;73.076;2022-09-14T03:56:19;12.84;65.09
72355;SHT30;60314;55.040;73.076;2022-09-14T03:58:47;13.04;64.44
72355;SHT30;60314;55.040;73.076;2022-09-14T04:01:16;13.18;64.73
72355;SHT30;60314;55.040;73.076;2022-09-14T04:03:44;13.32;63.77
72355;SHT30;60314;55.040;73.076;2022-09-14T04:06:15;13.48;62.88
72355;SHT30;60314;55.040;73.076;2022-09-14T04:08:42;13.59;62.83
72355;SHT30;60314;55.040;73.076;2022-09-14T04:13:37;13.84;62.05
72355;SHT30;60314;55.040;73.076;2022-09-14T04:16:04;13.94;61.14
72355;SHT30;60314;55.040;73.076;2022-09-14T04:18:31;14.13;60.72
72355;SHT30;60314;55.040;73.076;2022-09-14T04:21:05;14.18;60.78
72355;SHT30;60314;55.040;73.076;2022-09-14T04:23:32;14.31;59.50
72355;SHT30;60314;55.040;73.076;2022-09-14T04:26:09;14.40;58.57
72355;SHT30;60314;55.040;73.076;2022-09-14T04:28:35;14.44;59.59
72355;SHT30;60314;55.040;73.076;2022-09-14T04:31:02;14.57;59.14
72355;SHT30;60314;55.040;73.076;2022-09-14T04:33:34;14.62;57.51
72355;SHT30;60314;55.040;73.076;2022-09-14T04:36:11;14.71;58.20
72355;SHT30;60314;55.040;73.076;2022-09-14T04:38:40;14.89;57.52
72355;SHT30;60314;55.040;73.076;2022-09-14T04:41:17;14.95;56.86
72355;SHT30;60314;55.040;73.076;2022-09-14T04:43:46;15.07;56.62
72355;SHT30;60314;55.040;73.076;2022-09-14T04:46:15;15.18;55.39
72355;SHT30;60314;55.040;73.076;2022-09-14T04:48:47;15.32;54.37
72355;SHT30;60314;55.040;73.076;2022-09-14T04:51:26;15.40;54.94
72355;SHT30;60314;55.040;73.076;2022-09-14T04:53:54;15.54;53.95
72355;SHT30;60314;55.040;73.076;2022-09-14T04:56:22;15.58;52.98
72355;SHT30;60314;55.040;73.076;2022-09-14T04:58:55;15.68;53.84
72355;SHT30;60314;55.040;73.076;2022-09-14T05:01:24;15.71;52.30
72355;SHT30;60314;55.040;73.076;2022-09-14T05:04:02;15.80;52.85
72355;SHT30;60314;55.040;73.076;2022-09-14T05:06:40;15.88;50.81
72355;SHT30;60314;55.040;73.076;2022-09-14T05:09:18;15.90;52.17
72355;SHT30;60314;55.040;73.076;2022-09-14T05:11:45;16.04;52.21
72355;SHT30;60314;55.040;73.076;2022-09-14T05:14:12;16.12;51.56
72355;SHT30;60314;55.040;73.076;2022-09-14T05:16:40;16.18;50.18
72355;SHT30;60314;55.040;73.076;2022-09-14T05:19:10;16.15;49.95
72355;SHT30;60314;55.040;73.076;2022-09-14T05:21:37;16.09;50.99
72355;SHT30;60314;55.040;73.076;2022-09-14T05:24:12;16.16;50.62
72355;SHT30;60314;55.040;73.076;2022-09-14T05:26:40;16.22;49.81
72355;SHT30;60314;55.040;73.076;2022-09-14T05:29:17;16.28;50.51
72355;SHT30;60314;55.040;73.076;2022-09-14T05:31:45;16.15;48.89
72355;SHT30;60314;55.040;73.076;2022-09-14T05:34:16;16.30;50.67
72355;SHT30;60314;55.040;73.076;2022-09-14T05:36:42;16.30;51.08
72355;SHT30;60314;55.040;73.076;2022-09-14T05:39:09;16.49;49.61
72355;SHT30;60314;55.040;73.076;2022-09-14T05:41:35;16.53;50.00
72355;SHT30;60314;55.040;73.076;2022-09-14T05:44:03;16.59;49.39
72355;SHT30;60314;55.040;73.076;2022-09-14T05:46:30;16.64;50.14
72355;SHT30;60314;55.040;73.076;2022-09-14T05:48:57;16.69;48.45
72355;SHT30;60314;55.040;73.076;2022-09-14T05:51:25;16.67;48.01
72355;SHT30;60314;55.040;73.076;2022-09-14T05:54:01;16.81;46.79
72355;SHT30;60314;55.040;73.076;2022-09-14T05:56:34;16.83;44.81
72355;SHT30;60314;55.040;73.076;2022-09-14T05:59:00;16.91;47.75
72355;SHT30;60314;55.040;73.076;2022-09-14T06:01:29;16.87;46.77
72355;SHT30;60314;55.040;73.076;2022-09-14T06:03:58;16.90;43.89
72355;SHT30;60314;55.040;73.076;2022-09-14T06:06:29;16.88;43.45
72355;SHT30;60314;55.040;73.076;2022-09-14T06:08:56;16.81;45.49
72355;SHT30;60314;55.040;73.076;2022-09-14T06:11:29;16.83;43.29
72355;SHT30;60314;55.040;73.076;2022-09-14T06:14:19;16.83;44.97
72355;SHT30;60314;55.040;73.076;2022-09-14T06:16:53;16.88;47.80
72355;SHT30;60314;55.040;73.076;2022-09-14T06:19:23;16.81;43.08
72355;SHT30;60314;55.040;73.076;2022-09-14T06:21:50;16.77;43.11
72355;SHT30;60314;55.040;73.076;2022-09-14T06:24:16;16.81;46.62
72355;SHT30;60314;55.040;73.076;2022-09-14T06:26:43;16.87;43.59
72355;SHT30;60314;55.040;73.076;2022-09-14T06:29:10;16.84;45.10
72355;SHT30;60314;55.040;73.076;2022-09-14T06:31:36;16.76;42.41
72355;SHT30;60314;55.040;73.076;2022-09-14T06:34:03;16.73;42.92
72355;SHT30;60314;55.040;73.076;2022-09-14T06:36:30;16.81;43.89
72355;SHT30;60314;55.040;73.076;2022-09-14T06:38:58;17.02;43.12
72355;SHT30;60314;55.040;73.076;2022-09-14T06:41:26;17.04;42.76
72355;SHT30;60314;55.040;73.076;2022-09-14T06:44:04;17.02;42.18
72355;SHT30;60314;55.040;73.076;2022-09-14T06:46:32;16.93;43.70
72355;SHT30;60314;55.040;73.076;2022-09-14T06:49:08;16.76;43.81
72355;SHT30;60314;55.040;73.076;2022-09-14T06:51:40;16.80;44.17
72355;SHT30;60314;55.040;73.076;2022-09-14T06:54:08;16.81;40.97
72355;SHT30;60314;55.040;73.076;2022-09-14T06:56:38;16.80;41.55
72355;SHT30;60314;55.040;73.076;2022-09-14T06:59:05;16.87;42.94
72355;SHT30;60314;55.040;73.076;2022-09-14T07:01:37;16.99;39.47
72355;SHT30;60314;55.040;73.076;2022-09-14T07:04:04;17.13;43.37
72355;SHT30;60314;55.040;73.076;2022-09-14T07:06:37;17.24;44.04
72355;SHT30;60314;55.040;73.076;2022-09-14T07:09:04;17.42;44.27
72355;SHT30;60314;55.040;73.076;2022-09-14T07:11:31;17.44;43.00
72355;SHT30;60314;55.040;73.076;2022-09-14T07:13:57;17.35;41.73
72355;SHT30;60314;55.040;73.076;2022-09-14T07:16:27;17.32;40.53
72355;SHT30;60314;55.040;73.076;2022-09-14T07:18:55;17.56;43.13
72355;SHT30;60314;55.040;73.076;2022-09-14T07:21:24;17.79;40.45
72355;SHT30;60314;55.040;73.076;2022-09-14T07:23:51;17.90;42.83
72355;SHT30;60314;55.040;73.076;2022-09-14T07:26:26;17.85;41.68
72355;SHT30;60314;55.040;73.076;2022-09-14T07:29:09;17.68;41.01
72355;SHT30;60314;55.040;73.076;2022-09-14T07:31:58;17.42;40.25
72355;SHT30;60314;55.040;73.076;2022-09-14T07:34:31;17.32;41.84
72355;SHT30;60314;55.040;73.076;2022-09-14T07:37:00;17.24;42.19
72355;SHT30;60314;55.040;73.076;2022-09-14T07:39:27;17.37;41.31
72355;SHT30;60314;55.040;73.076;2022-09-14T07:41:53;17.65;41.11
72355;SHT30;60314;55.040;73.076;2022-09-14T07:44:20;17.86;43.90
72355;SHT30;60314;55.040;73.076;2022-09-14T07:46:46;17.99;42.67
72355;SHT30;60314;55.040;73.076;2022-09-14T07:49:14;17.99;39.93
72355;SHT30;60314;55.040;73.076;2022-09-14T07:51:40;18.20;40.15
72355;SHT30;60314;55.040;73.076;2022-09-14T07:54:12;18.38;38.67
72355;SHT30;60314;55.040;73.076;2022-09-14T07:56:39;18.50;39.60
72355;SHT30;60314;55.040;73.076;2022-09-14T07:59:13;18.41;38.42
72355;SHT30;60314;55.040;73.076;2022-09-14T08:01:44;18.36;39.19
72355;SHT30;60314;55.040;73.076;2022-09-14T08:04:37;18.07;40.09
72355;SHT30;60314;55.040;73.076;2022-09-14T08:07:11;18.00;40.02
72355;SHT30;60314;55.040;73.076;2022-09-14T08:09:37;17.96;39.59
72355;SHT30;60314;55.040;73.076;2022-09-14T08:12:04;17.83;40.12
72355;SHT30;60314;55.040;73.076;2022-09-14T08:14:32;17.74;42.58
72355;SHT30;60314;55.040;73.076;2022-09-14T08:17:02;17.74;42.54
72355;SHT30;60314;55.040;73.076;2022-09-14T08:19:28;17.45;41.00
72355;SHT30;60314;55.040;73.076;2022-09-14T08:21:55;17.41;44.20
72355;SHT30;60314;55.040;73.076;2022-09-14T08:24:22;17.44;40.90
72355;SHT30;60314;55.040;73.076;2022-09-14T08:26:49;17.32;41.15
72355;SHT30;60314;55.040;73.076;2022-09-14T08:29:17;17.39;42.17
72355;SHT30;60314;55.040;73.076;2022-09-14T08:31:44;17.45;43.36
72355;SHT30;60314;55.040;73.076;2022-09-14T08:34:11;17.51;41.98
72355;SHT30;60314;55.040;73.076;2022-09-14T08:36:39;17.58;42.02
72355;SHT30;60314;55.040;73.076;2022-09-14T08:39:08;17.64;41.42
72355;SHT30;60314;55.040;73.076;2022-09-14T08:41:53;17.66;42.29
72355;SHT30;60314;55.040;73.076;2022-09-14T08:44:29;17.76;41.56
72355;SHT30;60314;55.040;73.076;2022-09-14T08:49:41;17.76;42.06
72355;SHT30;60314;55.040;73.076;2022-09-14T08:54:51;17.64;40.42
72355;SHT30;60314;55.040;73.076;2022-09-14T09:00:14;17.68;42.31
72355;SHT30;60314;55.040;73.076;2022-09-14T09:05:39;17.48;40.24
72355;SHT30;60314;55.040;73.076;2022-09-14T09:08:24;17.56;42.36
72355;SHT30;60314;55.040;73.076;2022-09-14T09:10:53;17.68;43.32
72355;SHT30;60314;55.040;73.076;2022-09-14T09:13:23;17.74;41.65
72355;SHT30;60314;55.040;73.076;2022-09-14T09:15:58;17.85;41.17
72355;SHT30;60314;55.040;73.076;2022-09-14T09:18:33;17.85;42.12
72355;SHT30;60314;55.040;73.076;2022-09-14T09:21:12;17.85;41.80
72355;SHT30;60314;55.040;73.076;2022-09-14T09:23:40;17.82;39.34
72355;SHT30;60314;55.040;73.076;2022-09-14T09:26:28;17.86;41.32
72355;SHT30;60314;55.040;73.076;2022-09-14T09:29:08;17.92;38.03
72355;SHT30;60314;55.040;73.076;2022-09-14T09:32:05;18.02;37.46
72355;SHT30;60314;55.040;73.076;2022-09-14T09:34:55;17.93;39.69
72355;SHT30;60314;55.040;73.076;2022-09-14T09:37:47;17.89;37.23
72355;SHT30;60314;55.040;73.076;2022-09-14T09:40:35;17.92;37.84
72355;SHT30;60314;55.040;73.076;2022-09-14T09:43:11;17.96;37.89
72355;SHT30;60314;55.040;73.076;2022-09-14T09:45:56;17.87;37.54
72355;SHT30;60314;55.040;73.076;2022-09-14T09:48:26;17.81;37.23
72355;SHT30;60314;55.040;73.076;2022-09-14T09:51:25;17.81;39.36
72355;SHT30;60314;55.040;73.076;2022-09-14T09:56:40;17.71;41.25
72355;SHT30;60314;55.040;73.076;2022-09-14T09:59:32;17.52;39.20
72355;SHT30;60314;55.040;73.076;2022-09-14T10:02:30;17.31;37.98
72355;SHT30;60314;55.040;73.076;2022-09-14T10:07:57;17.04;40.91
72355;SHT30;60314;55.040;73.076;2022-09-14T10:10:44;17.00;39.54
72355;SHT30;60314;55.040;73.076;2022-09-14T10:13:31;16.94;38.97
72355;SHT30;60314;55.040;73.076;2022-09-14T10:16:12;16.87;40.17
72355;SHT30;60314;55.040;73.076;2022-09-14T10:18:46;16.76;40.39
72355;SHT30;60314;55.040;73.076;2022-09-14T10:21:17;16.72;39.66
72355;SHT30;60314;55.040;73.076;2022-09-14T10:23:44;16.63;39.95
72355;SHT30;60314;55.040;73.076;2022-09-14T10:28:47;16.59;41.35
72355;SHT30;60314;55.040;73.076;2022-09-14T10:31:25;16.66;42.26
72355;SHT30;60314;55.040;73.076;2022-09-14T10:33:54;16.72;41.71
72355;SHT30;60314;55.040;73.076;2022-09-14T10:36:31;16.77;42.25
72355;SHT30;60314;55.040;73.076;2022-09-14T10:41:51;16.81;41.54
72355;SHT30;60314;55.040;73.076;2022-09-14T10:52:32;16.97;40.70
72355;SHT30;60314;55.040;73.076;2022-09-14T11:07:07;16.90;41.22
72355;SHT30;60314;55.040;73.076;2022-09-14T11:12:44;16.99;40.81
72355;SHT30;60314;55.040;73.076;2022-09-14T11:15:44;17.04;39.36
72355;SHT30;60314;55.040;73.076;2022-09-14T11:18:30;17.07;39.52
72355;SHT30;60314;55.040;73.076;2022-09-14T11:21:22;17.11;40.14
72355;SHT30;60314;55.040;73.076;2022-09-14T11:23:56;17.13;40.03
72355;SHT30;60314;55.040;73.076;2022-09-14T11:26:36;17.11;38.27
72355;SHT30;60314;55.040;73.076;2022-09-14T11:29:38;17.17;39.06
72355;SHT30;60314;55.040;73.076;2022-09-14T11:32:10;17.14;39.03
72355;SHT30;60314;55.040;73.076;2022-09-14T11:34:44;17.13;39.86
72355;SHT30;60314;55.040;73.076;2022-09-14T11:37:15;17.08;39.56
72355;SHT30;60314;55.040;73.076;2022-09-14T11:39:59;17.02;40.22
72355;SHT30;60314;55.040;73.076;2022-09-14T11:42:32;16.93;40.63
72355;SHT30;60314;55.040;73.076;2022-09-14T11:45:06;16.83;41.04
72355;SHT30;60314;55.040;73.076;2022-09-14T11:47:54;16.83;40.65
72355;SHT30;60314;55.040;73.076;2022-09-14T11:50:25;16.80;40.76
72355;SHT30;60314;55.040;73.076;2022-09-14T11:53:09;16.74;41.73
72355;SHT30;60314;55.040;73.076;2022-09-14T11:55:39;16.74;40.71
72355;SHT30;60314;55.040;73.076;2022-09-14T11:58:20;16.64;41.25
72355;SHT30;60314;55.040;73.076;2022-09-14T12:03:21;16.62;42.75
72355;SHT30;60314;55.040;73.076;2022-09-14T12:05:48;16.57;43.29
72355;SHT30;60314;55.040;73.076;2022-09-14T12:13:38;16.55;42.04
72355;SHT30;60314;55.040;73.076;2022-09-14T12:16:07;16.52;42.92
72355;SHT30;60314;55.040;73.076;2022-09-14T12:18:38;16.55;43.42
72355;SHT30;60314;55.040;73.076;2022-09-14T12:21:23;16.48;46.41
72355;SHT30;60314;55.040;73.076;2022-09-14T12:23:52;16.43;45.71
72355;SHT30;60314;55.040;73.076;2022-09-14T12:28:50;16.36;48.03
72355;SHT30;60314;55.040;73.076;2022-09-14T12:31:36;16.29;45.19
72355;SHT30;60314;55.040;73.076;2022-09-14T12:34:17;16.28;43.73
72355;SHT30;60314;55.040;73.076;2022-09-14T12:44:31;15.98;44.43
72355;SHT30;60314;55.040;73.076;2022-09-14T12:50:24;15.81;44.21
72355;SHT30;60314;55.040;73.076;2022-09-14T12:53:05;15.78;45.32
72355;SHT30;60314;55.040;73.076;2022-09-14T13:01:35;15.65;43.70
72355;SHT30;60314;55.040;73.076;2022-09-14T13:06:58;15.53;43.28
72355;SHT30;60314;55.040;73.076;2022-09-14T13:09:26;15.46;43.49
72355;SHT30;60314;55.040;73.076;2022-09-14T13:12:04;15.40;43.28
72355;SHT30;60314;55.040;73.076;2022-09-14T13:15:03;15.32;43.54
72355;SHT30;60314;55.040;73.076;2022-09-14T13:17:31;15.27;43.16
72355;SHT30;60314;55.040;73.076;2022-09-14T13:20:03;15.20;43.81
72355;SHT30;60314;55.040;73.076;2022-09-14T13:22:41;15.10;43.61
72355;SHT30;60314;55.040;73.076;2022-09-14T13:25:27;15.06;44.79
72355;SHT30;60314;55.040;73.076;2022-09-14T13:28:02;15.06;44.23
72355;SHT30;60314;55.040;73.076;2022-09-14T13:30:31;15.02;45.41
72355;SHT30;60314;55.040;73.076;2022-09-14T13:32:58;15.00;45.23
72355;SHT30;60314;55.040;73.076;2022-09-14T13:38:23;14.93;43.66
72355;SHT30;60314;55.040;73.076;2022-09-14T13:41:16;14.92;43.78
72355;SHT30;60314;55.040;73.076;2022-09-14T13:43:44;14.83;44.99
72355;SHT30;60314;55.040;73.076;2022-09-14T13:46:25;14.79;44.38
72355;SHT30;60314;55.040;73.076;2022-09-14T13:48:53;14.71;44.83
72355;SHT30;60314;55.040;73.076;2022-09-14T13:51:31;14.65;47.28
72355;SHT30;60314;55.040;73.076;2022-09-14T13:54:28;14.64;48.61
72355;SHT30;60314;55.040;73.076;2022-09-14T13:57:15;14.60;49.54
72355;SHT30;60314;55.040;73.076;2022-09-14T14:00:15;14.49;49.01
72355;SHT30;60314;55.040;73.076;2022-09-14T14:02:57;14.40;49.61
72355;SHT30;60314;55.040;73.076;2022-09-14T14:05:31;14.40;51.48
72355;SHT30;60314;55.040;73.076;2022-09-14T14:08:01;14.30;52.96
72355;SHT30;60314;55.040;73.076;2022-09-14T14:10:37;14.25;52.78
72355;SHT30;60314;55.040;73.076;2022-09-14T14:13:04;14.20;54.11
72355;SHT30;60314;55.040;73.076;2022-09-14T14:15:41;14.13;54.04
72355;SHT30;60314;55.040;73.076;2022-09-14T14:24:16;13.83;55.23
72355;SHT30;60314;55.040;73.076;2022-09-14T14:26:55;13.76;55.42
72355;SHT30;60314;55.040;73.076;2022-09-14T14:29:35;13.59;53.55
72355;SHT30;60314;55.040;73.076;2022-09-14T14:32:01;13.53;53.70
72355;SHT30;60314;55.040;73.076;2022-09-14T14:34:28;13.50;55.36
72355;SHT30;60314;55.040;73.076;2022-09-14T14:37:04;13.48;57.50
72355;SHT30;60314;55.040;73.076;2022-09-14T14:39:32;13.42;58.49
72355;SHT30;60314;55.040;73.076;2022-09-14T14:42:00;13.30;59.82
72355;SHT30;60314;55.040;73.076;2022-09-14T14:44:28;13.19;60.03
72355;SHT30;60314;55.040;73.076;2022-09-14T14:47:05;13.08;59.79
72355;SHT30;60314;55.040;73.076;2022-09-14T14:49:32;12.97;59.09
72355;SHT30;60314;55.040;73.076;2022-09-14T14:51:59;12.83;59.09
72355;SHT30;60314;55.040;73.076;2022-09-14T14:54:45;12.74;60.55
72355;SHT30;60314;55.040;73.076;2022-09-14T14:57:13;12.68;59.05
72355;SHT30;60314;55.040;73.076;2022-09-14T14:59:45;12.67;59.20
72355;SHT30;60314;55.040;73.076;2022-09-14T15:02:12;12.68;58.97
72355;SHT30;60314;55.040;73.076;2022-09-14T15:04:38;12.61;61.09
72355;SHT30;60314;55.040;73.076;2022-09-14T15:07:08;12.56;60.36
72355;SHT30;60314;55.040;73.076;2022-09-14T15:09:57;12.56;60.66
72355;SHT30;60314;55.040;73.076;2022-09-14T15:12:43;12.49;61.59
72355;SHT30;60314;55.040;73.076;2022-09-14T15:15:37;12.46;63.23
72355;SHT30;60314;55.040;73.076;2022-09-14T15:18:18;12.40;60.83
72355;SHT30;60314;55.040;73.076;2022-09-14T15:21:05;12.30;59.47
72355;SHT30;60314;55.040;73.076;2022-09-14T15:23:32;12.20;62.18
72355;SHT30;60314;55.040;73.076;2022-09-14T15:25:58;12.12;62.82
72355;SHT30;60314;55.040;73.076;2022-09-14T15:28:46;12.00;63.60
72355;SHT30;60314;55.040;73.076;2022-09-14T15:31:27;11.90;63.13
72355;SHT30;60314;55.040;73.076;2022-09-14T15:34:05;11.88;62.68
72355;SHT30;60314;55.040;73.076;2022-09-14T15:36:54;11.92;61.72
72355;SHT30;60314;55.040;73.076;2022-09-14T15:39:23;11.89;64.49
72355;SHT30;60314;55.040;73.076;2022-09-14T15:41:59;11.81;66.47
72355;SHT30;60314;55.040;73.076;2022-09-14T15:44:25;11.71;67.88
72355;SHT30;60314;55.040;73.076;2022-09-14T15:46:51;11.64;68.28
72355;SHT30;60314;55.040;73.076;2022-09-14T15:49:20;11.59;66.70
72355;SHT30;60314;55.040;73.076;2022-09-14T15:51:49;11.59;68.13
72355;SHT30;60314;55.040;73.076;2022-09-14T15:54:18;11.47;69.17
72355;SHT30;60314;55.040;73.076;2022-09-14T15:56:50;11.35;68.00
72355;SHT30;60314;55.040;73.076;2022-09-14T15:59:17;11.37;69.21
72355;SHT30;60314;55.040;73.076;2022-09-14T16:01:44;11.35;69.70
72355;SHT30;60314;55.040;73.076;2022-09-14T16:04:11;11.26;69.80
72355;SHT30;60314;55.040;73.076;2022-09-14T16:06:38;11.23;70.03
72355;SHT30;60314;55.040;73.076;2022-09-14T16:09:07;11.21;69.47
72355;SHT30;60314;55.040;73.076;2022-09-14T16:11:37;11.27;68.27
72355;SHT30;60314;55.040;73.076;2022-09-14T16:14:04;11.28;67.91
72355;SHT30;60314;55.040;73.076;2022-09-14T16:16:31;11.30;67.47
72355;SHT30;60314;55.040;73.076;2022-09-14T16:19:06;11.28;66.85
72355;SHT30;60314;55.040;73.076;2022-09-14T16:21:34;11.31;67.00
72355;SHT30;60314;55.040;73.076;2022-09-14T16:24:03;11.32;66.93
72355;SHT30;60314;55.040;73.076;2022-09-14T16:26:38;11.34;66.21
72355;SHT30;60314;55.040;73.076;2022-09-14T16:29:06;11.30;67.91
72355;SHT30;60314;55.040;73.076;2022-09-14T16:31:35;11.24;68.88
72355;SHT30;60314;55.040;73.076;2022-09-14T16:34:09;11.21;69.62
72355;SHT30;60314;55.040;73.076;2022-09-14T16:36:37;11.14;69.34
72355;SHT30;60314;55.040;73.076;2022-09-14T16:39:12;11.14;69.14
72355;SHT30;60314;55.040;73.076;2022-09-14T16:41:40;11.10;69.07
72355;SHT30;60314;55.040;73.076;2022-09-14T16:44:19;11.08;68.69
72355;SHT30;60314;55.040;73.076;2022-09-14T16:46:46;11.04;69.02
72355;SHT30;60314;55.040;73.076;2022-09-14T16:49:24;10.99;68.47
72355;SHT30;60314;55.040;73.076;2022-09-14T16:51:59;10.90;70.89
72355;SHT30;60314;55.040;73.076;2022-09-14T16:54:25;10.92;69.17
72355;SHT30;60314;55.040;73.076;2022-09-14T16:56:54;10.93;68.90
72355;SHT30;60314;55.040;73.076;2022-09-14T16:59:22;10.92;68.89
72355;SHT30;60314;55.040;73.076;2022-09-14T17:01:48;10.93;70.46
72355;SHT30;60314;55.040;73.076;2022-09-14T17:04:16;10.86;69.99
72355;SHT30;60314;55.040;73.076;2022-09-14T17:06:46;10.79;68.44
72355;SHT30;60314;55.040;73.076;2022-09-14T17:09:20;10.79;67.68
72355;SHT30;60314;55.040;73.076;2022-09-14T17:11:48;10.76;67.30
72355;SHT30;60314;55.040;73.076;2022-09-14T17:14:19;10.83;67.24
72355;SHT30;60314;55.040;73.076;2022-09-14T17:16:46;10.86;65.44
72355;SHT30;60314;55.040;73.076;2022-09-14T17:19:13;10.96;65.06
72355;SHT30;60314;55.040;73.076;2022-09-14T17:21:42;11.04;64.76
72355;SHT30;60314;55.040;73.076;2022-09-14T17:24:09;10.96;67.28
72355;SHT30;60314;55.040;73.076;2022-09-14T17:26:36;10.96;69.19
72355;SHT30;60314;55.040;73.076;2022-09-14T17:29:13;10.89;71.24
72355;SHT30;60314;55.040;73.076;2022-09-14T17:31:41;10.73;71.84
72355;SHT30;60314;55.040;73.076;2022-09-14T17:34:10;10.67;72.06
72355;SHT30;60314;55.040;73.076;2022-09-14T17:36:37;10.63;72.71
72355;SHT30;60314;55.040;73.076;2022-09-14T17:39:05;10.53;72.97
72355;SHT30;60314;55.040;73.076;2022-09-14T17:41:32;10.53;71.88
72355;SHT30;60314;55.040;73.076;2022-09-14T17:44:05;10.50;72.65
72355;SHT30;60314;55.040;73.076;2022-09-14T17:46:41;10.53;69.72
72355;SHT30;60314;55.040;73.076;2022-09-14T17:49:08;10.55;69.10